Външен сензор Measurements

Back to Overview

Timestamp Temperature Humidity
2/20/2019 12:17:46 PM 14.3 C 39.2%
2/20/2019 12:10:41 PM 14.8 C 39.6%
2/20/2019 12:03:40 PM 15.2 C 39.9%
2/20/2019 11:56:39 AM 15.2 C 40.5%
2/20/2019 11:49:35 AM 14.6 C 40.6%
2/20/2019 11:42:34 AM 14.2 C 41.4%
2/20/2019 11:35:33 AM 14.1 C 41.4%
2/20/2019 11:28:32 AM 13.8 C 42.6%
2/20/2019 11:21:30 AM 13.4 C 42.9%
2/20/2019 11:14:28 AM 13.8 C 43.1%
2/20/2019 11:07:26 AM 13.2 C 43.0%
2/20/2019 11:00:24 AM 12.6 C 44.0%
2/20/2019 10:53:22 AM 12.2 C 44.6%
2/20/2019 10:46:20 AM 12.4 C 45.6%
2/20/2019 10:39:19 AM 12.0 C 45.7%
2/20/2019 10:32:17 AM 11.7 C 46.8%
2/20/2019 10:25:15 AM 11.4 C 49.0%
2/20/2019 10:19:44 AM 10.8 C 49.5%
2/20/2019 10:12:42 AM 10.1 C 51.6%
2/20/2019 10:08:40 AM 9.4 C 52.6%
2/20/2019 10:05:39 AM 8.7 C 54.3%
2/20/2019 10:02:37 AM 8.0 C 55.9%
2/20/2019 9:59:51 AM 7.3 C 57.3%
2/20/2019 9:54:35 AM 6.6 C 58.4%
2/20/2019 9:47:33 AM 6.7 C 56.6%
2/20/2019 9:40:31 AM 7.3 C 56.9%
2/20/2019 9:33:29 AM 7.0 C 59.6%
2/20/2019 9:28:39 AM 6.4 C 61.7%
2/20/2019 9:23:40 AM 5.7 C 63.7%
2/20/2019 9:18:54 AM 5.0 C 64.6%
2/20/2019 9:14:53 AM 4.3 C 65.9%
2/20/2019 9:11:05 AM 3.6 C 67.4%
2/20/2019 9:06:34 AM 2.9 C 68.6%
2/20/2019 9:01:17 AM 2.3 C 69.9%
2/20/2019 8:56:59 AM 1.6 C 71.7%
2/20/2019 8:53:30 AM 0.9 C 73.4%
2/20/2019 8:50:28 AM 0.2 C 75.5%
2/20/2019 8:43:26 AM -0.3 C 78.0%
2/20/2019 8:36:24 AM -0.8 C 79.1%
2/20/2019 8:29:21 AM -1.1 C 79.9%
2/20/2019 8:22:20 AM -1.2 C 80.0%
2/20/2019 8:15:18 AM -1.2 C 80.5%
2/20/2019 8:08:16 AM -1.4 C 80.3%
2/20/2019 8:01:14 AM -1.7 C 81.0%
2/20/2019 7:54:13 AM -2.0 C 81.6%
2/20/2019 7:47:11 AM -2.0 C 81.1%
2/20/2019 7:40:09 AM -1.9 C 81.1%
2/20/2019 7:33:07 AM -1.7 C 80.1%
2/20/2019 7:26:06 AM -1.1 C 78.7%
2/20/2019 7:19:04 AM -0.8 C 78.2%